createdAt,value
2018-10-09T00:02:05.297Z,6.57
2018-10-09T00:04:33.784Z,9.70
2018-10-09T00:07:02.323Z,8.77
2018-10-09T00:09:30.962Z,6.53
2018-10-09T00:11:59.364Z,6.27
2018-10-09T00:14:28.616Z,7.47
2018-10-09T00:16:57.093Z,6.97
2018-10-09T00:19:25.517Z,7.67
2018-10-09T00:21:53.957Z,7.73
2018-10-09T00:24:22.362Z,6.30
2018-10-09T00:26:50.846Z,9.23
2018-10-09T00:29:21.980Z,7.23
2018-10-09T00:31:50.345Z,7.93
2018-10-09T00:34:18.780Z,6.57
2018-10-09T00:36:47.211Z,9.50
2018-10-09T00:39:15.679Z,8.77
2018-10-09T00:41:44.053Z,9.17
2018-10-09T00:44:12.416Z,7.03
2018-10-09T00:46:40.804Z,9.10
2018-10-09T00:49:09.221Z,6.90
2018-10-09T00:51:37.645Z,7.27
2018-10-09T00:54:06.048Z,6.63
2018-10-09T00:56:34.578Z,8.70
2018-10-09T00:59:03.235Z,9.57
2018-10-09T01:01:31.698Z,7.37
2018-10-09T01:04:00.212Z,5.37
2018-10-09T01:06:28.696Z,9.70
2018-10-09T01:08:57.209Z,8.93
2018-10-09T01:11:25.649Z,9.10
2018-10-09T01:13:54.164Z,7.27
2018-10-09T01:16:22.629Z,6.57
2018-10-09T01:18:51.062Z,7.63
2018-10-09T01:21:19.515Z,10.73
2018-10-09T01:23:47.896Z,9.43
2018-10-09T01:26:16.366Z,9.87
2018-10-09T01:28:44.793Z,10.37
2018-10-09T01:31:13.185Z,10.97
2018-10-09T01:33:41.592Z,9.00
2018-10-09T01:36:10.126Z,10.80
2018-10-09T01:38:40.034Z,9.03
2018-10-09T01:41:08.532Z,7.17
2018-10-09T01:43:36.978Z,8.30
2018-10-09T01:46:05.406Z,7.17
2018-10-09T01:48:33.912Z,8.40
2018-10-09T01:51:02.535Z,8.40
2018-10-09T01:53:31.011Z,8.43
2018-10-09T01:55:59.466Z,9.47
2018-10-09T01:58:27.986Z,8.87
2018-10-09T02:00:56.413Z,9.40
2018-10-09T02:03:24.856Z,9.63
2018-10-09T02:05:53.358Z,9.73
2018-10-09T02:08:21.861Z,8.07
2018-10-09T02:10:50.287Z,8.33
2018-10-09T02:13:18.721Z,6.90
2018-10-09T02:15:47.302Z,10.17
2018-10-09T02:18:15.748Z,9.00
2018-10-09T02:20:44.248Z,8.13
2018-10-09T02:23:12.835Z,8.67
2018-10-09T02:25:41.398Z,7.93
2018-10-09T02:28:09.819Z,9.87
2018-10-09T02:30:38.276Z,10.93
2018-10-09T02:33:07.401Z,9.53
2018-10-09T02:35:35.899Z,8.93
2018-10-09T02:38:04.423Z,7.70
2018-10-09T02:40:32.920Z,7.57
2018-10-09T02:43:01.509Z,9.93
2018-10-09T02:45:29.918Z,8.43
2018-10-09T02:47:58.645Z,7.87
2018-10-09T02:50:27.013Z,9.70
2018-10-09T02:52:55.546Z,9.23
2018-10-09T02:55:24.037Z,8.90
2018-10-09T02:57:52.472Z,13.07
2018-10-09T03:00:20.935Z,8.73
2018-10-09T03:02:49.368Z,9.07
2018-10-09T03:05:17.865Z,9.67
2018-10-09T03:07:46.302Z,9.70
2018-10-09T03:10:14.656Z,9.93
2018-10-09T03:12:43.189Z,9.30
2018-10-09T03:15:11.638Z,8.60
2018-10-09T03:17:40.061Z,7.83
2018-10-09T03:20:08.518Z,8.23
2018-10-09T03:22:37.005Z,11.47
2018-10-09T03:25:05.568Z,9.13
2018-10-09T03:27:34.162Z,8.57
2018-10-09T03:30:02.642Z,8.20
2018-10-09T03:32:31.157Z,7.90
2018-10-09T03:34:59.568Z,8.63
2018-10-09T03:37:28.061Z,10.30
2018-10-09T03:39:56.490Z,8.77
2018-10-09T03:42:24.929Z,8.07
2018-10-09T03:44:53.409Z,11.47
2018-10-09T03:47:22.039Z,9.73
2018-10-09T03:49:50.426Z,8.20
2018-10-09T03:52:18.942Z,10.93
2018-10-09T03:54:47.431Z,10.23
2018-10-09T03:57:15.887Z,9.93
2018-10-09T03:59:44.409Z,10.60
2018-10-09T04:02:12.833Z,12.67
2018-10-09T04:04:41.183Z,10.43
2018-10-09T04:07:09.590Z,8.00
2018-10-09T04:09:38.176Z,12.23
2018-10-09T04:12:06.806Z,10.20
2018-10-09T04:14:35.366Z,12.33
2018-10-09T04:17:04.027Z,9.47
2018-10-09T04:19:32.579Z,13.37
2018-10-09T04:22:01.136Z,9.97
2018-10-09T04:24:29.672Z,10.10
2018-10-09T04:26:58.127Z,10.63
2018-10-09T04:29:26.638Z,9.30
2018-10-09T04:31:55.064Z,14.60
2018-10-09T04:34:23.561Z,11.00
2018-10-09T04:36:52.042Z,11.57
2018-10-09T04:39:20.569Z,11.33
2018-10-09T04:41:49.190Z,10.47
2018-10-09T04:44:17.680Z,12.50
2018-10-09T04:46:46.079Z,10.27
2018-10-09T04:49:14.485Z,11.90
2018-10-09T04:51:42.916Z,9.67
2018-10-09T04:54:11.378Z,12.60
2018-10-09T04:56:39.843Z,11.07
2018-10-09T04:59:08.439Z,12.33
2018-10-09T05:01:36.778Z,12.67
2018-10-09T05:04:05.301Z,12.43
2018-10-09T05:06:33.820Z,11.43
2018-10-09T05:09:02.337Z,13.37
2018-10-09T05:11:30.860Z,10.90
2018-10-09T05:13:59.750Z,11.70
2018-10-09T05:16:28.210Z,12.23
2018-10-09T05:18:56.808Z,12.00
2018-10-09T05:21:25.249Z,11.10
2018-10-09T05:23:53.712Z,11.03
2018-10-09T05:26:22.165Z,12.87
2018-10-09T05:28:50.700Z,11.80
2018-10-09T05:31:19.263Z,13.07
2018-10-09T05:33:47.605Z,11.27
2018-10-09T05:36:15.979Z,15.27
2018-10-09T05:38:44.831Z,12.63
2018-10-09T05:41:13.283Z,12.07
2018-10-09T05:43:41.758Z,11.80
2018-10-09T05:46:10.178Z,12.50
2018-10-09T05:48:38.606Z,12.93
2018-10-09T05:51:07.446Z,12.20
2018-10-09T05:53:35.845Z,13.40
2018-10-09T05:56:04.419Z,14.43
2018-10-09T05:58:32.877Z,13.40
2018-10-09T06:01:01.362Z,11.37
2018-10-09T06:03:29.785Z,11.97
2018-10-09T06:05:58.349Z,13.63
2018-10-09T06:08:26.629Z,12.43
2018-10-09T06:10:55.130Z,13.30
2018-10-09T06:13:23.538Z,9.60
2018-10-09T06:15:52.180Z,11.37
2018-10-09T06:18:20.627Z,12.60
2018-10-09T06:20:49.077Z,11.67
2018-10-09T06:23:17.675Z,10.03
2018-10-09T06:25:46.124Z,11.63
2018-10-09T06:28:14.662Z,15.07
2018-10-09T06:30:42.875Z,14.33
2018-10-09T06:33:11.403Z,12.93
2018-10-09T06:35:40.230Z,13.07
2018-10-09T06:38:08.791Z,12.67
2018-10-09T06:40:37.258Z,13.37
2018-10-09T06:43:05.775Z,12.63
2018-10-09T06:45:34.298Z,13.13
2018-10-09T06:48:02.827Z,10.53
2018-10-09T06:50:31.703Z,12.20
2018-10-09T06:53:01.185Z,14.00
2018-10-09T06:55:29.827Z,13.93
2018-10-09T06:57:58.303Z,13.40
2018-10-09T07:00:26.811Z,14.57
2018-10-09T07:02:55.197Z,13.33
2018-10-09T07:05:23.640Z,14.70
2018-10-09T07:07:52.101Z,13.67
2018-10-09T07:10:20.569Z,14.77
2018-10-09T07:12:48.949Z,10.40
2018-10-09T07:15:17.425Z,13.63
2018-10-09T07:17:45.808Z,11.83
2018-10-09T07:20:14.296Z,14.13
2018-10-09T07:22:42.750Z,11.53
2018-10-09T07:25:11.200Z,17.53
2018-10-09T07:27:39.660Z,15.03
2018-10-09T07:30:08.804Z,14.00
2018-10-09T07:32:37.477Z,16.23
2018-10-09T07:35:07.114Z,13.10
2018-10-09T07:37:35.527Z,15.10
2018-10-09T07:40:04.049Z,14.57
2018-10-09T07:42:32.526Z,16.53
2018-10-09T07:45:01.044Z,15.90
2018-10-09T07:47:29.743Z,22.73
2018-10-09T07:49:58.214Z,18.47
2018-10-09T07:52:26.613Z,17.70
2018-10-09T07:54:55.101Z,15.03
2018-10-09T07:57:23.482Z,16.50
2018-10-09T07:59:52.035Z,15.30
2018-10-09T08:02:20.570Z,13.27
2018-10-09T08:04:49.107Z,12.60
2018-10-09T08:07:17.591Z,14.70
2018-10-09T08:09:46.061Z,14.80
2018-10-09T08:12:14.573Z,13.20
2018-10-09T08:14:43.095Z,14.30
2018-10-09T08:17:11.670Z,14.67
2018-10-09T08:19:40.270Z,13.37
2018-10-09T08:22:08.688Z,19.17
2018-10-09T08:24:37.201Z,14.43
2018-10-09T08:27:05.714Z,17.63
2018-10-09T08:29:34.142Z,17.20
2018-10-09T08:32:02.613Z,15.40
2018-10-09T08:34:31.266Z,11.80
2018-10-09T08:36:59.706Z,13.40
2018-10-09T08:39:28.222Z,11.10
2018-10-09T08:41:56.728Z,15.50
2018-10-09T08:44:25.157Z,13.10
2018-10-09T08:46:53.670Z,40.93
2018-10-09T08:49:22.161Z,13.43
2018-10-09T08:51:50.721Z,17.17
2018-10-09T08:54:19.558Z,18.77
2018-10-09T08:56:48.897Z,20.70
2018-10-09T08:59:24.683Z,17.80
2018-10-09T09:01:53.095Z,16.17
2018-10-09T09:04:21.682Z,17.90
2018-10-09T09:06:50.354Z,19.33
2018-10-09T09:09:18.687Z,17.17
2018-10-09T09:11:47.389Z,15.67
2018-10-09T09:14:16.133Z,17.47
2018-10-09T09:16:44.757Z,21.43
2018-10-09T09:19:13.466Z,20.73
2018-10-09T09:21:41.929Z,20.03
2018-10-09T09:24:10.482Z,23.07
2018-10-09T09:26:39.266Z,23.07
2018-10-09T09:29:07.781Z,22.73
2018-10-09T09:31:36.249Z,19.63
2018-10-09T09:34:04.711Z,22.20
2018-10-09T09:36:33.228Z,21.23
2018-10-09T09:39:01.897Z,22.43
2018-10-09T09:41:30.302Z,20.47
2018-10-09T09:43:58.710Z,24.47
2018-10-09T09:46:27.240Z,20.90
2018-10-09T09:48:55.724Z,25.80
2018-10-09T09:51:24.173Z,25.63
2018-10-09T09:53:52.656Z,21.77
2018-10-09T09:56:21.201Z,24.90
2018-10-09T09:58:49.856Z,20.87
2018-10-09T10:01:18.149Z,21.97
2018-10-09T10:03:46.743Z,22.37
2018-10-09T10:06:15.109Z,27.07
2018-10-09T10:08:43.546Z,26.23
2018-10-09T10:11:12.108Z,19.43
2018-10-09T10:13:40.532Z,18.90
2018-10-09T10:16:09.142Z,21.57
2018-10-09T10:18:37.602Z,21.80
2018-10-09T10:21:06.310Z,20.60
2018-10-09T10:23:34.945Z,17.33
2018-10-09T10:26:03.471Z,17.83
2018-10-09T10:28:31.925Z,17.93
2018-10-09T10:31:00.406Z,12.60
2018-10-09T10:33:28.852Z,14.20
2018-10-09T10:35:57.246Z,20.73
2018-10-09T10:38:25.767Z,12.63
2018-10-09T10:40:54.506Z,12.70
2018-10-09T10:43:23.202Z,14.33
2018-10-09T10:45:51.955Z,17.03
2018-10-09T10:48:20.406Z,13.20
2018-10-09T10:50:49.215Z,16.77
2018-10-09T10:53:17.745Z,13.17
2018-10-09T10:55:46.366Z,7.60
2018-10-09T10:58:14.845Z,11.83
2018-10-09T11:00:43.442Z,11.70
2018-10-09T11:03:12.287Z,10.87
2018-10-09T11:05:41.036Z,12.00
2018-10-09T11:08:09.760Z,8.30
2018-10-09T11:10:38.220Z,12.03
2018-10-09T11:13:06.818Z,9.37
2018-10-09T11:15:35.314Z,12.20
2018-10-09T11:18:03.916Z,11.20
2018-10-09T11:20:32.454Z,9.50
2018-10-09T11:23:00.927Z,12.00
2018-10-09T11:25:29.437Z,13.27
2018-10-09T11:27:57.916Z,11.93
2018-10-09T11:30:26.387Z,8.73
2018-10-09T11:32:54.884Z,9.40
2018-10-09T11:35:23.350Z,8.73
2018-10-09T11:37:51.772Z,9.40
2018-10-09T11:40:20.308Z,7.87
2018-10-09T11:42:48.915Z,9.13
2018-10-09T11:45:17.290Z,7.37
2018-10-09T11:47:45.901Z,7.60
2018-10-09T11:50:14.446Z,6.97
2018-10-09T11:52:42.965Z,10.13
2018-10-09T11:55:11.505Z,6.33
2018-10-09T11:57:40.049Z,9.73
2018-10-09T12:00:08.974Z,5.37
2018-10-09T12:05:24.264Z,8.37
2018-10-09T12:07:52.805Z,5.67
2018-10-09T12:10:21.424Z,9.77
2018-10-09T12:12:49.969Z,8.13
2018-10-09T12:15:18.457Z,8.57
2018-10-09T12:17:46.983Z,7.80
2018-10-09T12:20:15.408Z,8.30
2018-10-09T12:22:45.095Z,9.63
2018-10-09T12:25:13.583Z,9.13
2018-10-09T12:27:42.157Z,8.33
2018-10-09T12:30:10.574Z,7.90
2018-10-09T12:32:40.460Z,8.50
2018-10-09T12:35:08.911Z,6.60
2018-10-09T12:37:38.301Z,6.57
2018-10-09T12:40:06.978Z,13.03
2018-10-09T12:42:35.385Z,6.13
2018-10-09T12:45:03.841Z,9.10
2018-10-09T12:47:32.319Z,10.80
2018-10-09T12:50:01.113Z,6.80
2018-10-09T12:52:29.688Z,4.87
2018-10-09T12:54:59.184Z,8.67
2018-10-09T12:57:27.644Z,9.03
2018-10-09T12:59:56.193Z,5.70
2018-10-09T13:02:24.711Z,10.27
2018-10-09T13:04:53.359Z,8.37
2018-10-09T13:07:21.799Z,8.13
2018-10-09T13:09:50.344Z,6.20
2018-10-09T13:12:18.816Z,6.17
2018-10-09T13:14:47.240Z,7.70
2018-10-09T13:17:16.006Z,7.43
2018-10-09T13:19:44.441Z,6.67
2018-10-09T13:22:13.327Z,8.83
2018-10-09T13:24:41.646Z,7.70
2018-10-09T13:27:10.629Z,8.77
2018-10-09T13:29:39.273Z,11.43
2018-10-09T13:32:07.955Z,10.67
2018-10-09T13:34:36.641Z,11.50
2018-10-09T13:37:06.132Z,11.17
2018-10-09T13:39:34.735Z,12.40
2018-10-09T13:42:03.227Z,11.30
2018-10-09T13:44:31.787Z,9.63
2018-10-09T13:47:00.250Z,7.33
2018-10-09T13:49:28.730Z,8.70
2018-10-09T13:51:57.157Z,12.20
2018-10-09T13:54:25.684Z,10.33
2018-10-09T13:56:54.148Z,8.50
2018-10-09T13:59:22.550Z,10.90
2018-10-09T14:01:51.013Z,11.57
2018-10-09T14:04:19.504Z,10.03
2018-10-09T14:06:48.021Z,9.93
2018-10-09T14:09:16.543Z,11.43
2018-10-09T14:11:45.129Z,11.67
2018-10-09T14:14:13.543Z,12.97
2018-10-09T14:16:41.933Z,9.97
2018-10-09T14:19:10.376Z,7.97
2018-10-09T14:21:38.915Z,9.43
2018-10-09T14:24:07.337Z,6.77
2018-10-09T14:26:35.929Z,9.33
2018-10-09T14:29:04.416Z,8.03
2018-10-09T14:31:32.968Z,10.60
2018-10-09T14:34:01.377Z,13.33
2018-10-09T14:36:30.073Z,12.10
2018-10-09T14:38:58.554Z,11.77
2018-10-09T14:41:27.178Z,12.90
2018-10-09T14:43:55.783Z,11.47
2018-10-09T14:46:24.288Z,11.67
2018-10-09T14:48:52.818Z,11.50
2018-10-09T14:51:21.359Z,7.27
2018-10-09T14:53:49.816Z,8.30
2018-10-09T14:56:18.307Z,7.93
2018-10-09T14:58:46.812Z,5.83
2018-10-09T15:01:15.293Z,11.33
2018-10-09T15:03:43.726Z,10.03
2018-10-09T15:06:12.185Z,8.07
2018-10-09T15:08:40.645Z,10.30
2018-10-09T15:11:09.054Z,11.23
2018-10-09T15:13:37.569Z,11.80
2018-10-09T15:16:06.101Z,9.93
2018-10-09T15:18:34.521Z,11.23
2018-10-09T15:21:03.004Z,12.53
2018-10-09T15:23:31.482Z,10.73
2018-10-09T15:25:59.884Z,8.33
2018-10-09T15:28:28.252Z,10.53
2018-10-09T15:30:56.633Z,8.83
2018-10-09T15:33:25.012Z,8.33
2018-10-09T15:35:53.501Z,11.87
2018-10-09T15:38:21.899Z,12.23
2018-10-09T15:40:50.420Z,11.00
2018-10-09T15:43:18.825Z,10.23
2018-10-09T15:45:47.176Z,9.17
2018-10-09T15:48:15.590Z,6.93
2018-10-09T15:50:44.156Z,9.33
2018-10-09T15:53:12.584Z,9.00
2018-10-09T15:55:41.125Z,10.87
2018-10-09T15:58:09.615Z,7.63
2018-10-09T16:00:39.034Z,10.27
2018-10-09T16:03:08.247Z,13.27
2018-10-09T16:05:36.651Z,10.43
2018-10-09T16:08:05.180Z,8.97
2018-10-09T16:10:33.665Z,9.27
2018-10-09T16:13:02.316Z,10.57
2018-10-09T16:15:30.700Z,9.30
2018-10-09T16:17:59.168Z,6.73
2018-10-09T16:20:27.627Z,7.07
2018-10-09T16:22:55.977Z,6.87
2018-10-09T16:25:24.400Z,7.00
2018-10-09T16:27:52.830Z,7.07
2018-10-09T16:30:21.248Z,6.77
2018-10-09T16:32:49.815Z,7.00
2018-10-09T16:35:18.063Z,7.23
2018-10-09T16:37:46.479Z,8.37
2018-10-09T16:40:14.940Z,8.20
2018-10-09T16:42:43.243Z,5.50
2018-10-09T16:45:11.665Z,5.33
2018-10-09T16:47:40.105Z,6.20
2018-10-09T16:50:08.589Z,10.03
2018-10-09T16:52:36.993Z,8.63
2018-10-09T16:55:05.744Z,10.40
2018-10-09T16:57:34.120Z,11.45
2018-10-09T17:00:03.083Z,7.93
2018-10-09T17:02:31.521Z,8.40
2018-10-09T17:04:59.880Z,9.80
2018-10-09T17:07:28.256Z,13.83
2018-10-09T17:09:56.676Z,10.43
2018-10-09T17:12:25.033Z,11.75
2018-10-09T17:14:53.471Z,9.17
2018-10-09T17:17:21.837Z,12.27
2018-10-09T17:19:53.781Z,13.88
2018-10-09T17:22:22.305Z,11.70
2018-10-09T17:24:50.738Z,11.33
2018-10-09T17:27:19.230Z,9.23
2018-10-09T17:29:47.702Z,12.23
2018-10-09T17:32:16.146Z,8.77
2018-10-09T17:34:44.602Z,8.50
2018-10-09T17:37:13.051Z,11.17
2018-10-09T17:39:41.442Z,11.03
2018-10-09T17:42:09.997Z,7.43
2018-10-09T17:44:38.439Z,8.63
2018-10-09T17:47:07.082Z,9.13
2018-10-09T17:49:36.216Z,12.23
2018-10-09T17:52:04.665Z,10.10
2018-10-09T17:54:33.260Z,13.13
2018-10-09T17:57:01.815Z,8.70
2018-10-09T17:59:30.447Z,10.57
2018-10-09T18:01:59.306Z,12.00
2018-10-09T18:04:28.467Z,11.70
2018-10-09T18:06:57.189Z,10.20
2018-10-09T18:09:25.621Z,12.17
2018-10-09T18:11:54.177Z,12.67
2018-10-09T18:14:22.681Z,12.20
2018-10-09T18:16:51.249Z,13.57
2018-10-09T18:19:19.901Z,10.27
2018-10-09T18:21:48.716Z,13.13
2018-10-09T18:24:17.197Z,13.23
2018-10-09T18:26:45.780Z,12.00
2018-10-09T18:29:14.180Z,14.43
2018-10-09T18:31:42.786Z,14.13
2018-10-09T18:34:11.261Z,16.50
2018-10-09T18:36:39.957Z,13.20
2018-10-09T18:39:11.843Z,13.43
2018-10-09T18:41:40.549Z,12.73
2018-10-09T18:44:08.989Z,14.73
2018-10-09T18:46:37.411Z,12.73
2018-10-09T18:49:05.912Z,15.00
2018-10-09T18:51:34.876Z,13.57
2018-10-09T18:54:03.273Z,11.90
2018-10-09T18:56:31.821Z,17.40
2018-10-09T18:59:00.382Z,13.43
2018-10-09T19:01:28.849Z,15.53
2018-10-09T19:03:57.352Z,14.23
2018-10-09T19:06:25.921Z,19.43
2018-10-09T19:08:54.466Z,15.50
2018-10-09T19:11:25.774Z,20.50
2018-10-09T19:13:54.873Z,13.73
2018-10-09T19:16:23.753Z,14.47
2018-10-09T19:18:52.227Z,13.93
2018-10-09T19:21:20.740Z,14.97
2018-10-09T19:23:49.358Z,17.57
2018-10-09T19:26:17.777Z,14.60
2018-10-09T19:28:46.314Z,17.00
2018-10-09T19:31:14.724Z,18.40
2018-10-09T19:33:43.147Z,22.27
2018-10-09T19:36:11.593Z,12.97
2018-10-09T19:38:40.112Z,16.10
2018-10-09T19:41:08.615Z,17.27
2018-10-09T19:43:38.367Z,16.37
2018-10-09T19:46:06.836Z,16.10
2018-10-09T19:48:35.293Z,16.37
2018-10-09T19:51:03.987Z,16.60
2018-10-09T19:53:32.354Z,18.07
2018-10-09T19:56:01.014Z,19.20
2018-10-09T19:58:29.428Z,16.10
2018-10-09T20:00:58.064Z,17.93
2018-10-09T20:03:26.521Z,20.77
2018-10-09T20:05:55.145Z,16.83
2018-10-09T20:08:23.749Z,15.33
2018-10-09T20:10:52.299Z,23.07
2018-10-09T20:13:20.780Z,17.13
2018-10-09T20:15:49.309Z,18.90
2018-10-09T20:18:21.518Z,21.17
2018-10-09T20:20:50.165Z,16.37
2018-10-09T20:23:18.525Z,19.90
2018-10-09T20:25:46.935Z,22.30
2018-10-09T20:28:15.368Z,22.57
2018-10-09T20:30:43.816Z,20.90
2018-10-09T20:33:12.355Z,21.37
2018-10-09T20:35:40.809Z,20.23
2018-10-09T20:38:09.306Z,18.93
2018-10-09T20:40:37.709Z,20.13
2018-10-09T20:43:06.105Z,20.20
2018-10-09T20:45:34.521Z,18.50
2018-10-09T20:48:03.063Z,18.17
2018-10-09T20:50:32.410Z,14.63
2018-10-09T20:53:00.873Z,17.17
2018-10-09T20:55:29.333Z,16.57
2018-10-09T20:57:57.777Z,16.53
2018-10-09T21:00:26.264Z,19.33
2018-10-09T21:02:54.702Z,17.23
2018-10-09T21:05:23.180Z,20.33
2018-10-09T21:07:51.617Z,18.10
2018-10-09T21:10:20.029Z,19.17
2018-10-09T21:12:49.014Z,19.60
2018-10-09T21:15:25.588Z,21.57
2018-10-09T21:17:54.290Z,19.07
2018-10-09T21:20:22.681Z,22.00
2018-10-09T21:22:51.323Z,19.70
2018-10-09T21:25:19.810Z,19.10
2018-10-09T21:27:48.229Z,23.13
2018-10-09T21:30:16.826Z,21.33
2018-10-09T21:32:45.289Z,23.37
2018-10-09T21:35:13.729Z,22.17
2018-10-09T21:37:42.298Z,22.82
2018-10-09T21:40:10.734Z,22.70
2018-10-09T21:42:39.461Z,21.00
2018-10-09T21:45:07.886Z,23.10
2018-10-09T21:47:36.376Z,21.43
2018-10-09T21:50:05.004Z,21.93
2018-10-09T21:52:33.520Z,20.50
2018-10-09T21:55:02.020Z,26.20
2018-10-09T21:57:30.528Z,21.90
2018-10-09T21:59:59.001Z,24.37
2018-10-09T22:02:27.486Z,25.40
2018-10-09T22:04:56.017Z,22.93
2018-10-09T22:07:24.425Z,19.23
2018-10-09T22:09:52.877Z,20.63
2018-10-09T22:12:21.321Z,24.23
2018-10-09T22:14:49.818Z,22.93
2018-10-09T22:17:18.326Z,22.87
2018-10-09T22:19:46.802Z,20.60
2018-10-09T22:22:15.264Z,21.13
2018-10-09T22:24:43.668Z,23.20
2018-10-09T22:27:12.279Z,21.77
2018-10-09T22:29:40.834Z,21.37
2018-10-09T22:32:09.363Z,18.07
2018-10-09T22:34:37.885Z,19.63
2018-10-09T22:37:07.398Z,17.90
2018-10-09T22:39:35.884Z,22.10
2018-10-09T22:42:04.379Z,19.10
2018-10-09T22:44:33.014Z,19.50
2018-10-09T22:47:01.506Z,18.23
2018-10-09T22:49:30.090Z,24.23
2018-10-09T22:51:58.700Z,19.63
2018-10-09T22:54:28.078Z,23.40
2018-10-09T22:56:57.025Z,20.90
2018-10-09T22:59:26.150Z,20.53
2018-10-09T23:01:54.629Z,22.00
2018-10-09T23:04:23.185Z,18.33
2018-10-09T23:06:51.723Z,18.77
2018-10-09T23:09:20.190Z,20.40
2018-10-09T23:11:48.645Z,20.63
2018-10-09T23:14:17.405Z,22.07
2018-10-09T23:16:45.809Z,20.47
2018-10-09T23:19:14.265Z,19.53
2018-10-09T23:21:42.681Z,22.30
2018-10-09T23:24:11.737Z,21.83
2018-10-09T23:26:40.076Z,19.83
2018-10-09T23:29:08.501Z,21.07
2018-10-09T23:31:37.008Z,21.27
2018-10-09T23:34:05.547Z,19.40
2018-10-09T23:36:34.033Z,17.07
2018-10-09T23:39:02.685Z,18.33
2018-10-09T23:41:31.267Z,20.90
2018-10-09T23:43:59.849Z,19.23
2018-10-09T23:46:28.418Z,17.70
2018-10-09T23:48:57.019Z,22.00
2018-10-09T23:51:25.504Z,20.80
2018-10-09T23:53:54.007Z,23.70
2018-10-09T23:56:22.529Z,21.33
2018-10-09T23:58:50.985Z,19.43
